sensor_id;sensor_type;location;lat;lon;timestamp;temperature;humidity
11264;DHT22;5689;48.798;9.070;2023-05-28T00:00:47;13.80;93.20
11264;DHT22;5689;48.798;9.070;2023-05-28T00:03:16;13.70;93.50
11264;DHT22;5689;48.798;9.070;2023-05-28T00:05:45;13.60;93.60
11264;DHT22;5689;48.798;9.070;2023-05-28T00:08:13;13.50;93.90
11264;DHT22;5689;48.798;9.070;2023-05-28T00:10:42;13.40;94.20
11264;DHT22;5689;48.798;9.070;2023-05-28T00:13:10;13.40;94.20
11264;DHT22;5689;48.798;9.070;2023-05-28T00:15:38;13.30;94.30
11264;DHT22;5689;48.798;9.070;2023-05-28T00:18:06;13.30;94.20
11264;DHT22;5689;48.798;9.070;2023-05-28T00:20:39;13.20;94.10
11264;DHT22;5689;48.798;9.070;2023-05-28T00:23:07;13.10;94.20
11264;DHT22;5689;48.798;9.070;2023-05-28T00:25:35;13.20;94.10
11264;DHT22;5689;48.798;9.070;2023-05-28T00:28:03;13.20;94.00
11264;DHT22;5689;48.798;9.070;2023-05-28T00:30:31;13.20;94.70
11264;DHT22;5689;48.798;9.070;2023-05-28T00:32:59;13.50;95.10
11264;DHT22;5689;48.798;9.070;2023-05-28T00:35:28;13.60;94.70
11264;DHT22;5689;48.798;9.070;2023-05-28T00:37:58;13.40;95.00
11264;DHT22;5689;48.798;9.070;2023-05-28T00:40:26;13.20;95.10
11264;DHT22;5689;48.798;9.070;2023-05-28T00:42:54;13.20;95.20
11264;DHT22;5689;48.798;9.070;2023-05-28T00:45:22;13.10;95.50
11264;DHT22;5689;48.798;9.070;2023-05-28T00:47:51;13.00;95.60
11264;DHT22;5689;48.798;9.070;2023-05-28T00:50:19;12.90;95.50
11264;DHT22;5689;48.798;9.070;2023-05-28T00:52:49;13.00;95.50
11264;DHT22;5689;48.798;9.070;2023-05-28T00:55:20;12.90;95.50
11264;DHT22;5689;48.798;9.070;2023-05-28T00:57:49;12.80;95.70
11264;DHT22;5689;48.798;9.070;2023-05-28T01:00:21;12.70;96.00
11264;DHT22;5689;48.798;9.070;2023-05-28T01:02:50;12.60;96.40
11264;DHT22;5689;48.798;9.070;2023-05-28T01:05:18;12.50;96.80
11264;DHT22;5689;48.798;9.070;2023-05-28T01:07:46;12.50;97.00
11264;DHT22;5689;48.798;9.070;2023-05-28T01:10:15;12.50;97.00
11264;DHT22;5689;48.798;9.070;2023-05-28T01:12:45;12.50;97.30
11264;DHT22;5689;48.798;9.070;2023-05-28T01:15:13;12.50;97.50
11264;DHT22;5689;48.798;9.070;2023-05-28T01:17:41;12.40;97.50
11264;DHT22;5689;48.798;9.070;2023-05-28T01:20:09;12.40;97.70
11264;DHT22;5689;48.798;9.070;2023-05-28T01:22:45;12.30;97.80
11264;DHT22;5689;48.798;9.070;2023-05-28T01:25:17;12.30;98.10
11264;DHT22;5689;48.798;9.070;2023-05-28T01:27:45;12.20;98.20
11264;DHT22;5689;48.798;9.070;2023-05-28T01:30:14;12.20;98.50
11264;DHT22;5689;48.798;9.070;2023-05-28T01:32:43;12.20;98.70
11264;DHT22;5689;48.798;9.070;2023-05-28T01:35:12;12.10;99.00
11264;DHT22;5689;48.798;9.070;2023-05-28T01:37:46;12.10;99.40
11264;DHT22;5689;48.798;9.070;2023-05-28T01:40:17;12.10;99.60
11264;DHT22;5689;48.798;9.070;2023-05-28T01:42:46;12.10;99.20
11264;DHT22;5689;48.798;9.070;2023-05-28T01:45:14;12.10;99.40
11264;DHT22;5689;48.798;9.070;2023-05-28T01:47:44;12.00;99.50
11264;DHT22;5689;48.798;9.070;2023-05-28T01:50:12;12.10;99.70
11264;DHT22;5689;48.798;9.070;2023-05-28T01:52:42;12.00;99.90
11264;DHT22;5689;48.798;9.070;2023-05-28T01:55:11;11.90;99.90
11264;DHT22;5689;48.798;9.070;2023-05-28T01:57:43;11.90;99.90
11264;DHT22;5689;48.798;9.070;2023-05-28T02:00:12;11.70;99.90
11264;DHT22;5689;48.798;9.070;2023-05-28T02:02:41;11.70;99.90
11264;DHT22;5689;48.798;9.070;2023-05-28T02:05:13;11.70;99.90
11264;DHT22;5689;48.798;9.070;2023-05-28T02:07:41;11.60;99.90
11264;DHT22;5689;48.798;9.070;2023-05-28T02:10:09;11.60;99.90
11264;DHT22;5689;48.798;9.070;2023-05-28T02:12:37;11.60;99.90
11264;DHT22;5689;48.798;9.070;2023-05-28T02:15:08;11.60;99.90
11264;DHT22;5689;48.798;9.070;2023-05-28T02:17:37;11.60;99.90
11264;DHT22;5689;48.798;9.070;2023-05-28T02:20:06;11.50;99.90
11264;DHT22;5689;48.798;9.070;2023-05-28T02:22:34;11.30;99.90
11264;DHT22;5689;48.798;9.070;2023-05-28T02:25:03;11.30;99.90
11264;DHT22;5689;48.798;9.070;2023-05-28T02:27:31;11.40;99.90
11264;DHT22;5689;48.798;9.070;2023-05-28T02:29:59;11.40;99.90
11264;DHT22;5689;48.798;9.070;2023-05-28T02:32:29;11.40;99.90
11264;DHT22;5689;48.798;9.070;2023-05-28T02:34:57;11.40;99.90
11264;DHT22;5689;48.798;9.070;2023-05-28T02:37:26;11.30;99.90
11264;DHT22;5689;48.798;9.070;2023-05-28T02:39:54;11.30;99.90
11264;DHT22;5689;48.798;9.070;2023-05-28T02:42:22;11.20;99.90
11264;DHT22;5689;48.798;9.070;2023-05-28T02:44:50;11.10;99.90
11264;DHT22;5689;48.798;9.070;2023-05-28T02:47:20;11.10;99.90
11264;DHT22;5689;48.798;9.070;2023-05-28T02:49:51;11.00;99.90
11264;DHT22;5689;48.798;9.070;2023-05-28T02:52:19;10.90;99.90
11264;DHT22;5689;48.798;9.070;2023-05-28T02:54:47;11.10;99.90
11264;DHT22;5689;48.798;9.070;2023-05-28T02:57:15;11.10;99.90
11264;DHT22;5689;48.798;9.070;2023-05-28T02:59:44;11.10;99.90
11264;DHT22;5689;48.798;9.070;2023-05-28T03:02:12;11.00;99.90
11264;DHT22;5689;48.798;9.070;2023-05-28T03:04:41;11.00;99.90
11264;DHT22;5689;48.798;9.070;2023-05-28T03:07:11;10.90;99.90
11264;DHT22;5689;48.798;9.070;2023-05-28T03:09:39;10.80;99.90
11264;DHT22;5689;48.798;9.070;2023-05-28T03:12:08;10.80;99.90
11264;DHT22;5689;48.798;9.070;2023-05-28T03:14:36;10.80;99.90
11264;DHT22;5689;48.798;9.070;2023-05-28T03:17:04;10.80;99.90
11264;DHT22;5689;48.798;9.070;2023-05-28T03:19:32;10.70;99.90
11264;DHT22;5689;48.798;9.070;2023-05-28T03:22:00;10.70;99.90
11264;DHT22;5689;48.798;9.070;2023-05-28T03:24:35;10.70;99.90
11264;DHT22;5689;48.798;9.070;2023-05-28T03:27:09;10.70;99.90
11264;DHT22;5689;48.798;9.070;2023-05-28T03:29:38;10.60;99.90
11264;DHT22;5689;48.798;9.070;2023-05-28T03:32:26;10.60;99.90
11264;DHT22;5689;48.798;9.070;2023-05-28T03:34:54;10.50;99.90
11264;DHT22;5689;48.798;9.070;2023-05-28T03:37:28;10.50;99.90
11264;DHT22;5689;48.798;9.070;2023-05-28T03:39:59;10.50;99.90
11264;DHT22;5689;48.798;9.070;2023-05-28T03:42:27;10.50;99.90
11264;DHT22;5689;48.798;9.070;2023-05-28T03:44:55;10.60;99.90
11264;DHT22;5689;48.798;9.070;2023-05-28T03:47:23;10.60;99.90
11264;DHT22;5689;48.798;9.070;2023-05-28T03:49:52;10.50;99.90
11264;DHT22;5689;48.798;9.070;2023-05-28T03:52:20;10.50;99.90
11264;DHT22;5689;48.798;9.070;2023-05-28T03:54:52;10.60;99.90
11264;DHT22;5689;48.798;9.070;2023-05-28T03:57:21;10.60;99.90
11264;DHT22;5689;48.798;9.070;2023-05-28T03:59:49;10.60;99.90
11264;DHT22;5689;48.798;9.070;2023-05-28T04:02:17;10.60;99.90
11264;DHT22;5689;48.798;9.070;2023-05-28T04:04:46;10.60;99.90
11264;DHT22;5689;48.798;9.070;2023-05-28T04:07:14;10.60;99.90
11264;DHT22;5689;48.798;9.070;2023-05-28T04:09:42;10.70;99.90
11264;DHT22;5689;48.798;9.070;2023-05-28T04:12:10;10.80;99.90
11264;DHT22;5689;48.798;9.070;2023-05-28T04:14:40;10.90;99.90
11264;DHT22;5689;48.798;9.070;2023-05-28T04:17:09;11.00;99.90
11264;DHT22;5689;48.798;9.070;2023-05-28T04:19:38;11.00;99.90
11264;DHT22;5689;48.798;9.070;2023-05-28T04:22:07;11.00;99.90
11264;DHT22;5689;48.798;9.070;2023-05-28T04:24:35;11.00;99.90
11264;DHT22;5689;48.798;9.070;2023-05-28T04:27:04;11.00;99.90
11264;DHT22;5689;48.798;9.070;2023-05-28T04:29:33;11.00;99.90
11264;DHT22;5689;48.798;9.070;2023-05-28T04:32:03;11.30;99.90
11264;DHT22;5689;48.798;9.070;2023-05-28T04:34:31;11.30;99.90
11264;DHT22;5689;48.798;9.070;2023-05-28T04:37:00;11.40;99.90
11264;DHT22;5689;48.798;9.070;2023-05-28T04:39:29;11.40;99.90
11264;DHT22;5689;48.798;9.070;2023-05-28T04:41:57;11.70;99.90
11264;DHT22;5689;48.798;9.070;2023-05-28T04:44:26;11.80;99.90
11264;DHT22;5689;48.798;9.070;2023-05-28T04:46:55;12.10;99.90
11264;DHT22;5689;48.798;9.070;2023-05-28T04:49:27;12.10;99.90
11264;DHT22;5689;48.798;9.070;2023-05-28T04:51:56;12.10;99.90
11264;DHT22;5689;48.798;9.070;2023-05-28T04:54:24;12.00;99.90
11264;DHT22;5689;48.798;9.070;2023-05-28T04:56:53;12.00;99.90
11264;DHT22;5689;48.798;9.070;2023-05-28T04:59:21;12.00;99.90
11264;DHT22;5689;48.798;9.070;2023-05-28T05:01:49;12.10;99.90
11264;DHT22;5689;48.798;9.070;2023-05-28T05:04:17;12.60;99.90
11264;DHT22;5689;48.798;9.070;2023-05-28T05:06:46;12.60;99.90
11264;DHT22;5689;48.798;9.070;2023-05-28T05:09:14;12.70;99.90
11264;DHT22;5689;48.798;9.070;2023-05-28T05:11:43;12.80;99.90
11264;DHT22;5689;48.798;9.070;2023-05-28T05:14:11;13.10;99.90
11264;DHT22;5689;48.798;9.070;2023-05-28T05:16:39;13.50;99.90
11264;DHT22;5689;48.798;9.070;2023-05-28T05:19:07;13.80;99.90
11264;DHT22;5689;48.798;9.070;2023-05-28T05:21:35;14.00;99.90
11264;DHT22;5689;48.798;9.070;2023-05-28T05:24:05;14.70;99.60
11264;DHT22;5689;48.798;9.070;2023-05-28T05:26:33;15.20;98.90
11264;DHT22;5689;48.798;9.070;2023-05-28T05:29:01;15.60;96.80
11264;DHT22;5689;48.798;9.070;2023-05-28T05:31:29;15.80;95.80
11264;DHT22;5689;48.798;9.070;2023-05-28T05:33:58;16.20;95.50
11264;DHT22;5689;48.798;9.070;2023-05-28T05:36:41;16.10;94.20
11264;DHT22;5689;48.798;9.070;2023-05-28T05:39:26;16.20;93.50
11264;DHT22;5689;48.798;9.070;2023-05-28T05:42:05;16.10;94.30
11264;DHT22;5689;48.798;9.070;2023-05-28T05:44:40;16.20;94.20
11264;DHT22;5689;48.798;9.070;2023-05-28T05:47:08;16.80;93.30
11264;DHT22;5689;48.798;9.070;2023-05-28T05:49:37;16.60;93.40
11264;DHT22;5689;48.798;9.070;2023-05-28T05:52:06;16.10;92.90
11264;DHT22;5689;48.798;9.070;2023-05-28T05:54:38;15.70;93.90
11264;DHT22;5689;48.798;9.070;2023-05-28T05:57:06;16.30;93.30
11264;DHT22;5689;48.798;9.070;2023-05-28T05:59:34;16.60;93.60
11264;DHT22;5689;48.798;9.070;2023-05-28T06:02:02;16.80;92.90
11264;DHT22;5689;48.798;9.070;2023-05-28T06:04:30;17.30;91.20
11264;DHT22;5689;48.798;9.070;2023-05-28T06:07:13;17.50;90.80
11264;DHT22;5689;48.798;9.070;2023-05-28T06:09:55;17.80;91.40
11264;DHT22;5689;48.798;9.070;2023-05-28T06:12:27;18.00;90.70
11264;DHT22;5689;48.798;9.070;2023-05-28T06:14:55;18.10;89.60
11264;DHT22;5689;48.798;9.070;2023-05-28T06:17:24;18.30;90.40
11264;DHT22;5689;48.798;9.070;2023-05-28T06:19:52;18.40;87.70
11264;DHT22;5689;48.798;9.070;2023-05-28T06:22:20;18.50;87.70
11264;DHT22;5689;48.798;9.070;2023-05-28T06:24:49;18.30;87.90
11264;DHT22;5689;48.798;9.070;2023-05-28T06:27:20;18.30;87.00
11264;DHT22;5689;48.798;9.070;2023-05-28T06:29:48;18.60;88.10
11264;DHT22;5689;48.798;9.070;2023-05-28T06:32:16;19.20;85.70
11264;DHT22;5689;48.798;9.070;2023-05-28T06:34:45;18.90;86.80
11264;DHT22;5689;48.798;9.070;2023-05-28T06:37:13;19.40;85.60
11264;DHT22;5689;48.798;9.070;2023-05-28T06:39:41;19.80;85.20
11264;DHT22;5689;48.798;9.070;2023-05-28T06:42:09;20.20;84.20
11264;DHT22;5689;48.798;9.070;2023-05-28T06:44:47;20.70;81.40
11264;DHT22;5689;48.798;9.070;2023-05-28T06:47:15;21.10;80.30
11264;DHT22;5689;48.798;9.070;2023-05-28T06:49:44;21.40;81.90
11264;DHT22;5689;48.798;9.070;2023-05-28T06:52:12;20.70;83.30
11264;DHT22;5689;48.798;9.070;2023-05-28T06:54:40;20.50;83.80
11264;DHT22;5689;48.798;9.070;2023-05-28T06:57:09;21.20;82.30
11264;DHT22;5689;48.798;9.070;2023-05-28T06:59:55;20.90;82.30
11264;DHT22;5689;48.798;9.070;2023-05-28T07:02:44;22.20;79.70
11264;DHT22;5689;48.798;9.070;2023-05-28T07:05:31;22.80;76.90
11264;DHT22;5689;48.798;9.070;2023-05-28T07:07:59;23.20;74.30
11264;DHT22;5689;48.798;9.070;2023-05-28T07:10:27;23.70;72.50
11264;DHT22;5689;48.798;9.070;2023-05-28T07:12:55;24.00;74.60
11264;DHT22;5689;48.798;9.070;2023-05-28T07:15:25;23.60;73.70
11264;DHT22;5689;48.798;9.070;2023-05-28T07:17:53;22.90;76.60
11264;DHT22;5689;48.798;9.070;2023-05-28T07:20:21;23.00;76.40
11264;DHT22;5689;48.798;9.070;2023-05-28T07:22:57;23.10;74.40
11264;DHT22;5689;48.798;9.070;2023-05-28T07:25:25;23.30;74.20
11264;DHT22;5689;48.798;9.070;2023-05-28T07:27:53;23.20;74.40
11264;DHT22;5689;48.798;9.070;2023-05-28T07:30:28;22.90;74.40
11264;DHT22;5689;48.798;9.070;2023-05-28T07:33:00;22.70;73.70
11264;DHT22;5689;48.798;9.070;2023-05-28T07:35:28;23.20;74.20
11264;DHT22;5689;48.798;9.070;2023-05-28T07:37:56;23.20;75.30
11264;DHT22;5689;48.798;9.070;2023-05-28T07:40:24;24.30;69.30
11264;DHT22;5689;48.798;9.070;2023-05-28T07:42:57;25.40;68.80
11264;DHT22;5689;48.798;9.070;2023-05-28T07:45:25;24.60;69.90
11264;DHT22;5689;48.798;9.070;2023-05-28T07:47:56;23.60;71.10
11264;DHT22;5689;48.798;9.070;2023-05-28T07:50:42;23.30;73.30
11264;DHT22;5689;48.798;9.070;2023-05-28T07:53:39;23.70;72.10
11264;DHT22;5689;48.798;9.070;2023-05-28T07:56:11;24.20;69.40
11264;DHT22;5689;48.798;9.070;2023-05-28T07:58:42;24.40;69.80
11264;DHT22;5689;48.798;9.070;2023-05-28T08:01:11;25.10;68.80
11264;DHT22;5689;48.798;9.070;2023-05-28T08:03:41;26.30;67.40
11264;DHT22;5689;48.798;9.070;2023-05-28T08:06:09;27.70;65.30
11264;DHT22;5689;48.798;9.070;2023-05-28T08:08:38;28.20;62.20
11264;DHT22;5689;48.798;9.070;2023-05-28T08:11:08;26.90;64.50
11264;DHT22;5689;48.798;9.070;2023-05-28T08:13:40;25.30;68.30
11264;DHT22;5689;48.798;9.070;2023-05-28T08:16:10;26.50;65.10
11264;DHT22;5689;48.798;9.070;2023-05-28T08:19:08;25.80;66.20
11264;DHT22;5689;48.798;9.070;2023-05-28T08:21:37;26.40;65.40
11264;DHT22;5689;48.798;9.070;2023-05-28T08:24:07;25.20;68.40
11264;DHT22;5689;48.798;9.070;2023-05-28T08:26:36;25.80;68.30
11264;DHT22;5689;48.798;9.070;2023-05-28T08:29:05;26.00;66.50
11264;DHT22;5689;48.798;9.070;2023-05-28T08:31:40;26.00;65.90
11264;DHT22;5689;48.798;9.070;2023-05-28T08:34:16;25.10;66.30
11264;DHT22;5689;48.798;9.070;2023-05-28T08:36:45;25.50;66.80
11264;DHT22;5689;48.798;9.070;2023-05-28T08:39:18;26.70;64.90
11264;DHT22;5689;48.798;9.070;2023-05-28T08:41:47;26.00;65.30
11264;DHT22;5689;48.798;9.070;2023-05-28T08:44:15;26.80;64.10
11264;DHT22;5689;48.798;9.070;2023-05-28T08:46:44;27.60;63.40
11264;DHT22;5689;48.798;9.070;2023-05-28T08:49:38;28.00;62.10
11264;DHT22;5689;48.798;9.070;2023-05-28T08:52:08;28.00;60.10
11264;DHT22;5689;48.798;9.070;2023-05-28T08:54:40;28.50;58.60
11264;DHT22;5689;48.798;9.070;2023-05-28T08:57:09;29.20;59.90
11264;DHT22;5689;48.798;9.070;2023-05-28T08:59:45;30.10;56.40
11264;DHT22;5689;48.798;9.070;2023-05-28T09:02:14;30.00;58.80
11264;DHT22;5689;48.798;9.070;2023-05-28T09:04:44;29.00;59.80
11264;DHT22;5689;48.798;9.070;2023-05-28T09:07:14;29.50;58.10
11264;DHT22;5689;48.798;9.070;2023-05-28T09:09:54;28.60;61.70
11264;DHT22;5689;48.798;9.070;2023-05-28T09:12:26;28.90;59.70
11264;DHT22;5689;48.798;9.070;2023-05-28T09:15:00;29.40;58.60
11264;DHT22;5689;48.798;9.070;2023-05-28T09:17:35;30.50;57.80
11264;DHT22;5689;48.798;9.070;2023-05-28T09:20:12;31.30;55.80
11264;DHT22;5689;48.798;9.070;2023-05-28T09:22:41;31.10;54.80
11264;DHT22;5689;48.798;9.070;2023-05-28T09:25:35;29.10;57.80
11264;DHT22;5689;48.798;9.070;2023-05-28T09:28:12;30.70;56.60
11264;DHT22;5689;48.798;9.070;2023-05-28T09:30:41;29.20;55.00
11264;DHT22;5689;48.798;9.070;2023-05-28T09:33:10;27.00;57.90
11264;DHT22;5689;48.798;9.070;2023-05-28T09:35:39;27.80;58.30
11264;DHT22;5689;48.798;9.070;2023-05-28T09:38:10;26.80;58.50
11264;DHT22;5689;48.798;9.070;2023-05-28T09:40:39;26.60;61.30
11264;DHT22;5689;48.798;9.070;2023-05-28T09:43:08;27.70;59.40
11264;DHT22;5689;48.798;9.070;2023-05-28T09:45:37;27.30;58.70
11264;DHT22;5689;48.798;9.070;2023-05-28T09:48:05;28.90;59.50
11264;DHT22;5689;48.798;9.070;2023-05-28T09:50:34;29.80;55.40
11264;DHT22;5689;48.798;9.070;2023-05-28T09:53:03;30.60;54.50
11264;DHT22;5689;48.798;9.070;2023-05-28T09:55:32;30.40;53.40
11264;DHT22;5689;48.798;9.070;2023-05-28T09:58:03;29.10;55.10
11264;DHT22;5689;48.798;9.070;2023-05-28T10:00:34;29.80;56.00
11264;DHT22;5689;48.798;9.070;2023-05-28T10:03:24;30.80;53.50
11264;DHT22;5689;48.798;9.070;2023-05-28T10:05:56;30.10;54.50
11264;DHT22;5689;48.798;9.070;2023-05-28T10:08:27;29.00;56.10
11264;DHT22;5689;48.798;9.070;2023-05-28T10:10:55;28.50;55.50
11264;DHT22;5689;48.798;9.070;2023-05-28T10:13:24;27.90;58.70
11264;DHT22;5689;48.798;9.070;2023-05-28T10:15:53;29.50;55.40
11264;DHT22;5689;48.798;9.070;2023-05-28T10:18:22;29.10;56.60
11264;DHT22;5689;48.798;9.070;2023-05-28T10:20:52;29.90;55.30
11264;DHT22;5689;48.798;9.070;2023-05-28T10:23:20;29.70;55.90
11264;DHT22;5689;48.798;9.070;2023-05-28T10:25:51;30.40;54.50
11264;DHT22;5689;48.798;9.070;2023-05-28T10:28:20;31.30;52.90
11264;DHT22;5689;48.798;9.070;2023-05-28T10:31:00;30.90;55.30
11264;DHT22;5689;48.798;9.070;2023-05-28T10:33:30;30.30;55.40
11264;DHT22;5689;48.798;9.070;2023-05-28T10:35:59;31.10;55.80
11264;DHT22;5689;48.798;9.070;2023-05-28T10:38:29;32.40;53.00
11264;DHT22;5689;48.798;9.070;2023-05-28T10:41:02;31.80;53.30
11264;DHT22;5689;48.798;9.070;2023-05-28T10:43:42;33.20;52.20
11264;DHT22;5689;48.798;9.070;2023-05-28T10:46:15;31.20;54.90
11264;DHT22;5689;48.798;9.070;2023-05-28T10:49:11;31.10;51.90
11264;DHT22;5689;48.798;9.070;2023-05-28T10:51:44;28.00;57.10
11264;DHT22;5689;48.798;9.070;2023-05-28T10:54:14;30.30;54.90
11264;DHT22;5689;48.798;9.070;2023-05-28T10:57:09;31.20;54.90
11264;DHT22;5689;48.798;9.070;2023-05-28T10:59:39;30.70;52.60
11264;DHT22;5689;48.798;9.070;2023-05-28T11:02:07;31.20;54.80
11264;DHT22;5689;48.798;9.070;2023-05-28T11:04:36;33.20;52.20
11264;DHT22;5689;48.798;9.070;2023-05-28T11:07:05;33.80;49.90
11264;DHT22;5689;48.798;9.070;2023-05-28T11:09:33;34.10;51.20
11264;DHT22;5689;48.798;9.070;2023-05-28T11:12:02;33.80;51.10
11264;DHT22;5689;48.798;9.070;2023-05-28T11:14:35;34.00;51.00
11264;DHT22;5689;48.798;9.070;2023-05-28T11:17:10;34.20;49.80
11264;DHT22;5689;48.798;9.070;2023-05-28T11:19:42;32.80;52.90
11264;DHT22;5689;48.798;9.070;2023-05-28T11:22:11;33.00;51.40
11264;DHT22;5689;48.798;9.070;2023-05-28T11:24:50;31.80;53.20
11264;DHT22;5689;48.798;9.070;2023-05-28T11:27:20;34.00;52.20
11264;DHT22;5689;48.798;9.070;2023-05-28T11:29:50;34.40;49.90
11264;DHT22;5689;48.798;9.070;2023-05-28T11:32:18;33.40;49.90
11264;DHT22;5689;48.798;9.070;2023-05-28T11:34:48;31.50;53.30
11264;DHT22;5689;48.798;9.070;2023-05-28T11:37:18;33.80;50.90
11264;DHT22;5689;48.798;9.070;2023-05-28T11:39:51;31.80;50.00
11264;DHT22;5689;48.798;9.070;2023-05-28T11:42:20;33.90;51.80
11264;DHT22;5689;48.798;9.070;2023-05-28T11:44:50;34.30;49.50
11264;DHT22;5689;48.798;9.070;2023-05-28T11:47:19;34.60;48.60
11264;DHT22;5689;48.798;9.070;2023-05-28T11:49:48;34.10;50.50
11264;DHT22;5689;48.798;9.070;2023-05-28T11:52:18;34.10;49.20
11264;DHT22;5689;48.798;9.070;2023-05-28T11:54:47;34.40;47.80
11264;DHT22;5689;48.798;9.070;2023-05-28T11:57:20;34.40;47.40
11264;DHT22;5689;48.798;9.070;2023-05-28T11:59:59;33.70;47.70
11264;DHT22;5689;48.798;9.070;2023-05-28T12:02:27;35.70;46.60
11264;DHT22;5689;48.798;9.070;2023-05-28T12:04:56;36.70;46.00
11264;DHT22;5689;48.798;9.070;2023-05-28T12:07:27;33.90;49.30
11264;DHT22;5689;48.798;9.070;2023-05-28T12:10:06;32.80;47.80
11264;DHT22;5689;48.798;9.070;2023-05-28T12:12:42;33.00;48.30
11264;DHT22;5689;48.798;9.070;2023-05-28T12:15:13;35.10;46.90
11264;DHT22;5689;48.798;9.070;2023-05-28T12:17:43;32.60;47.00
11264;DHT22;5689;48.798;9.070;2023-05-28T12:20:30;31.80;48.80
11264;DHT22;5689;48.798;9.070;2023-05-28T12:23:02;33.50;51.10
11264;DHT22;5689;48.798;9.070;2023-05-28T12:25:47;35.90;47.10
11264;DHT22;5689;48.798;9.070;2023-05-28T12:28:16;34.70;44.80
11264;DHT22;5689;48.798;9.070;2023-05-28T12:30:48;33.80;45.50
11264;DHT22;5689;48.798;9.070;2023-05-28T12:33:17;34.00;44.90
11264;DHT22;5689;48.798;9.070;2023-05-28T12:35:45;36.00;44.10
11264;DHT22;5689;48.798;9.070;2023-05-28T12:38:14;36.60;46.10
11264;DHT22;5689;48.798;9.070;2023-05-28T12:40:42;37.70;43.50
11264;DHT22;5689;48.798;9.070;2023-05-28T12:43:10;38.40;43.20
11264;DHT22;5689;48.798;9.070;2023-05-28T12:45:38;36.90;44.50
11264;DHT22;5689;48.798;9.070;2023-05-28T12:48:07;37.30;43.10
11264;DHT22;5689;48.798;9.070;2023-05-28T12:50:35;34.60;45.00
11264;DHT22;5689;48.798;9.070;2023-05-28T12:53:03;31.90;48.30
11264;DHT22;5689;48.798;9.070;2023-05-28T12:55:32;31.00;50.20
11264;DHT22;5689;48.798;9.070;2023-05-28T12:58:00;32.40;49.00
11264;DHT22;5689;48.798;9.070;2023-05-28T13:00:28;33.60;47.80
11264;DHT22;5689;48.798;9.070;2023-05-28T13:02:56;35.20;46.30
11264;DHT22;5689;48.798;9.070;2023-05-28T13:05:26;35.40;43.90
11264;DHT22;5689;48.798;9.070;2023-05-28T13:07:54;35.10;43.50
11264;DHT22;5689;48.798;9.070;2023-05-28T13:10:22;32.70;47.50
11264;DHT22;5689;48.798;9.070;2023-05-28T13:12:50;33.20;46.90
11264;DHT22;5689;48.798;9.070;2023-05-28T13:15:18;35.90;43.80
11264;DHT22;5689;48.798;9.070;2023-05-28T13:17:46;34.00;46.60
11264;DHT22;5689;48.798;9.070;2023-05-28T13:20:14;34.50;45.30
11264;DHT22;5689;48.798;9.070;2023-05-28T13:22:44;34.00;45.90
11264;DHT22;5689;48.798;9.070;2023-05-28T13:25:12;34.30;45.60
11264;DHT22;5689;48.798;9.070;2023-05-28T13:27:40;36.90;44.20
11264;DHT22;5689;48.798;9.070;2023-05-28T13:30:09;33.00;45.90
11264;DHT22;5689;48.798;9.070;2023-05-28T13:32:37;32.70;47.20
11264;DHT22;5689;48.798;9.070;2023-05-28T13:35:05;35.40;43.60
11264;DHT22;5689;48.798;9.070;2023-05-28T13:37:33;35.20;44.00
11264;DHT22;5689;48.798;9.070;2023-05-28T13:40:03;36.70;43.90
11264;DHT22;5689;48.798;9.070;2023-05-28T13:42:34;34.00;45.00
11264;DHT22;5689;48.798;9.070;2023-05-28T13:45:03;34.20;44.80
11264;DHT22;5689;48.798;9.070;2023-05-28T13:47:31;35.60;42.80
11264;DHT22;5689;48.798;9.070;2023-05-28T13:49:59;35.40;43.00
11264;DHT22;5689;48.798;9.070;2023-05-28T13:52:27;33.00;45.60
11264;DHT22;5689;48.798;9.070;2023-05-28T13:54:56;32.30;45.70
11264;DHT22;5689;48.798;9.070;2023-05-28T13:57:25;33.60;46.70
11264;DHT22;5689;48.798;9.070;2023-05-28T13:59:53;32.00;45.40
11264;DHT22;5689;48.798;9.070;2023-05-28T14:02:21;33.70;43.80
11264;DHT22;5689;48.798;9.070;2023-05-28T14:04:49;36.60;43.20
11264;DHT22;5689;48.798;9.070;2023-05-28T14:07:17;34.70;40.80
11264;DHT22;5689;48.798;9.070;2023-05-28T14:09:45;32.60;44.70
11264;DHT22;5689;48.798;9.070;2023-05-28T14:12:13;34.10;45.00
11264;DHT22;5689;48.798;9.070;2023-05-28T14:14:48;35.60;40.90
11264;DHT22;5689;48.798;9.070;2023-05-28T14:17:16;32.70;42.10
11264;DHT22;5689;48.798;9.070;2023-05-28T14:19:44;34.00;42.60
11264;DHT22;5689;48.798;9.070;2023-05-28T14:22:13;33.80;41.60
11264;DHT22;5689;48.798;9.070;2023-05-28T14:24:41;35.60;42.60
11264;DHT22;5689;48.798;9.070;2023-05-28T14:27:10;36.90;42.30
11264;DHT22;5689;48.798;9.070;2023-05-28T14:29:37;35.00;44.40
11264;DHT22;5689;48.798;9.070;2023-05-28T14:32:07;36.00;43.90
11264;DHT22;5689;48.798;9.070;2023-05-28T14:34:35;36.90;42.20
11264;DHT22;5689;48.798;9.070;2023-05-28T14:37:03;35.10;43.50
11264;DHT22;5689;48.798;9.070;2023-05-28T14:39:31;33.90;44.60
11264;DHT22;5689;48.798;9.070;2023-05-28T14:41:59;33.10;45.40
11264;DHT22;5689;48.798;9.070;2023-05-28T14:44:29;31.60;48.00
11264;DHT22;5689;48.798;9.070;2023-05-28T14:46:57;31.10;48.80
11264;DHT22;5689;48.798;9.070;2023-05-28T14:49:27;31.50;48.00
11264;DHT22;5689;48.798;9.070;2023-05-28T14:51:55;33.80;44.50
11264;DHT22;5689;48.798;9.070;2023-05-28T14:54:24;33.00;45.50
11264;DHT22;5689;48.798;9.070;2023-05-28T14:56:52;34.50;43.90
11264;DHT22;5689;48.798;9.070;2023-05-28T14:59:20;31.90;45.60
11264;DHT22;5689;48.798;9.070;2023-05-28T15:01:48;32.10;45.70
11264;DHT22;5689;48.798;9.070;2023-05-28T15:04:16;32.50;45.80
11264;DHT22;5689;48.798;9.070;2023-05-28T15:06:45;30.50;47.50
11264;DHT22;5689;48.798;9.070;2023-05-28T15:09:13;28.40;52.50
11264;DHT22;5689;48.798;9.070;2023-05-28T15:11:42;28.20;52.40
11264;DHT22;5689;48.798;9.070;2023-05-28T15:14:10;27.80;53.30
11264;DHT22;5689;48.798;9.070;2023-05-28T15:16:38;27.00;55.20
11264;DHT22;5689;48.798;9.070;2023-05-28T15:19:06;27.90;51.70
11264;DHT22;5689;48.798;9.070;2023-05-28T15:21:34;27.50;52.50
11264;DHT22;5689;48.798;9.070;2023-05-28T15:24:04;28.00;50.90
11264;DHT22;5689;48.798;9.070;2023-05-28T15:26:32;28.40;50.60
11264;DHT22;5689;48.798;9.070;2023-05-28T15:29:00;28.40;52.20
11264;DHT22;5689;48.798;9.070;2023-05-28T15:31:28;28.50;52.00
11264;DHT22;5689;48.798;9.070;2023-05-28T15:33:57;28.00;53.10
11264;DHT22;5689;48.798;9.070;2023-05-28T15:36:25;28.50;51.90
11264;DHT22;5689;48.798;9.070;2023-05-28T15:38:54;27.80;53.10
11264;DHT22;5689;48.798;9.070;2023-05-28T15:41:24;26.90;53.90
11264;DHT22;5689;48.798;9.070;2023-05-28T15:43:53;28.50;53.00
11264;DHT22;5689;48.798;9.070;2023-05-28T15:46:21;29.90;51.10
11264;DHT22;5689;48.798;9.070;2023-05-28T15:48:50;31.40;49.10
11264;DHT22;5689;48.798;9.070;2023-05-28T15:51:18;28.70;51.50
11264;DHT22;5689;48.798;9.070;2023-05-28T15:53:47;27.60;54.00
11264;DHT22;5689;48.798;9.070;2023-05-28T15:56:15;27.90;53.30
11264;DHT22;5689;48.798;9.070;2023-05-28T15:58:45;27.20;54.60
11264;DHT22;5689;48.798;9.070;2023-05-28T16:01:13;26.90;55.00
11264;DHT22;5689;48.798;9.070;2023-05-28T16:03:43;26.40;55.90